Time;durP1;ratioP1;P1;durP2;ratioP2;P2;SDS_P1;SDS_P2;PMS_P1;PMS_P2;Temp;Humidity;BMP_temperature;BMP_pressure;BME280_temperature;BME280_humidity;BME280_pressure;Samples;Min_cycle;Max_cycle;Signal;HPM_P1;HPM_P2
2021/11/19 00:01:49;;;;;;;;;26.50;19.50;;;;;11.04;100.00;102954.63;5016862;28;45175;-73
2021/11/19 00:04:15;;;;;;;;;19.25;17.25;;;;;11.04;100.00;102958.13;5016497;28;45822;-74
2021/11/19 00:06:41;;;;;;;;;22.75;20.50;;;;;11.02;100.00;102957.09;5016027;28;45403;-72
2021/11/19 00:09:08;;;;;;;;;21.25;20.25;;;;;11.02;100.00;102958.78;5016246;28;45369;-72
2021/11/19 00:11:38;;;;;;;;;22.25;16.25;;;;;11.01;100.00;102972.56;5016672;28;45435;-73
2021/11/19 00:14:05;;;;;;;;;11.50;11.00;;;;;11.01;100.00;102965.66;5015843;28;45461;-73
2021/11/19 00:16:31;;;;;;;;;17.00;14.75;;;;;10.99;100.00;102967.22;5016118;28;46079;-72
2021/11/19 00:18:58;;;;;;;;;20.00;16.25;;;;;10.97;100.00;102954.16;5016190;28;45291;-73
2021/11/19 00:21:27;;;;;;;;;18.75;16.00;;;;;10.95;100.00;102953.13;5016362;28;45272;-72
2021/11/19 00:23:54;;;;;;;;;17.25;15.00;;;;;11.04;100.00;102959.81;5015812;28;45991;-72
2021/11/19 00:26:21;;;;;;;;;18.75;17.25;;;;;11.06;100.00;102956.56;5016271;28;45913;-72
2021/11/19 00:28:47;;;;;;;;;18.75;18.25;;;;;11.05;100.00;102944.38;5016438;28;45288;-75
2021/11/19 00:31:14;;;;;;;;;18.00;16.50;;;;;11.10;100.00;102948.22;5016122;28;45237;-77
2021/11/19 00:33:41;;;;;;;;;17.50;16.00;;;;;11.14;100.00;102955.47;5015854;28;45270;-76
2021/11/19 00:36:08;;;;;;;;;18.25;17.00;;;;;11.18;100.00;102953.09;5015763;28;45352;-75
2021/11/19 00:38:36;;;;;;;;;21.00;19.00;;;;;11.18;100.00;102947.91;5017803;28;45430;-77
2021/11/19 00:41:05;;;;;;;;;16.00;16.00;;;;;11.15;100.00;102940.78;5019743;28;45502;-75
2021/11/19 00:43:31;;;;;;;;;16.75;14.50;;;;;11.22;100.00;102950.88;5019115;28;46299;-73
2021/11/19 00:45:57;;;;;;;;;20.75;17.75;;;;;11.25;100.00;102945.00;5019364;28;45702;-75
2021/11/19 00:48:25;;;;;;;;;19.75;16.50;;;;;11.21;100.00;102937.78;5019409;28;45309;-74
2021/11/19 00:51:16;;;;;;;;;16.75;16.75;;;;;11.27;100.00;102959.88;5019589;28;45789;-73
2021/11/19 00:53:44;;;;;;;;;17.50;16.00;;;;;11.25;100.00;102945.91;5019364;28;46168;-75
2021/11/19 00:56:13;;;;;;;;;20.00;17.25;;;;;11.26;100.00;102949.41;5019251;28;45303;-76
2021/11/19 00:58:40;;;;;;;;;21.75;17.75;;;;;11.29;100.00;102957.41;5019258;28;45502;-75
2021/11/19 01:01:13;;;;;;;;;17.25;15.50;;;;;11.28;100.00;102953.94;5019258;28;45353;-76
2021/11/19 01:03:39;;;;;;;;;15.50;14.50;;;;;11.34;100.00;102947.41;5018897;28;45348;-77
2021/11/19 01:06:04;;;;;;;;;15.25;15.25;;;;;11.38;100.00;102941.66;5019040;28;45949;-77
2021/11/19 01:08:31;;;;;;;;;16.25;14.75;;;;;11.40;100.00;102945.28;5019109;28;45392;-78
2021/11/19 01:11:00;;;;;;;;;17.00;16.00;;;;;11.38;100.00;102927.00;5025156;28;45324;-73
2021/11/19 01:13:28;;;;;;;;;16.50;15.50;;;;;11.41;100.00;102935.00;5026996;28;45518;-75
2021/11/19 01:16:00;;;;;;;;;18.50;14.50;;;;;11.44;100.00;102935.25;5018969;28;45837;-77
2021/11/19 01:18:34;;;;;;;;;17.75;15.75;;;;;11.45;100.00;102930.94;5018898;28;45307;-76
2021/11/19 01:21:09;;;;;;;;;16.50;14.50;;;;;11.42;100.00;102926.44;5019228;28;45462;-76
2021/11/19 01:23:35;;;;;;;;;18.25;17.00;;;;;11.44;100.00;102924.88;5018602;28;46004;-75
2021/11/19 01:26:08;;;;;;;;;20.25;18.75;;;;;11.49;100.00;102932.09;5018449;28;45373;-73
2021/11/19 01:28:34;;;;;;;;;15.00;15.00;;;;;11.46;100.00;102924.97;5018770;28;45441;-73
2021/11/19 01:31:06;;;;;;;;;22.25;18.00;;;;;11.46;100.00;102927.56;5018790;28;45268;-73
2021/11/19 01:33:32;;;;;;;;;16.00;13.00;;;;;11.42;100.00;102912.56;5018556;28;45950;-73
2021/11/19 01:35:59;;;;;;;;;18.25;16.50;;;;;11.46;100.00;102924.97;5018414;28;45420;-73
2021/11/19 01:38:25;;;;;;;;;19.25;16.25;;;;;11.45;100.00;102912.78;5018559;28;45390;-73
2021/11/19 01:40:56;;;;;;;;;17.75;17.50;;;;;11.51;100.00;102920.13;5001108;28;45407;-75
2021/11/19 01:43:23;;;;;;;;;19.00;17.75;;;;;11.50;100.00;102931.31;5018306;28;46254;-75
2021/11/19 01:45:53;;;;;;;;;17.75;16.00;;;;;11.48;100.00;102919.91;5018580;28;45333;-74
2021/11/19 01:48:23;;;;;;;;;17.75;15.50;;;;;11.54;100.00;102930.75;5018764;28;45292;-73
2021/11/19 01:50:55;;;;;;;;;20.50;14.75;;;;;11.53;100.00;102923.75;5017958;28;45327;-73
2021/11/19 01:53:40;;;;;;;;;23.75;19.00;;;;;11.50;100.00;102910.56;5018345;28;45301;-72
2021/11/19 01:56:14;;;;;;;;;19.50;17.25;;;;;11.56;100.00;102926.56;5017984;28;45327;-73
2021/11/19 01:58:49;;;;;;;;;22.25;19.25;;;;;11.58;100.00;102923.31;5018213;28;45185;-72
2021/11/19 02:01:23;;;;;;;;;19.00;16.00;;;;;11.59;100.00;102924.22;5000466;28;45706;-74
2021/11/19 02:03:54;;;;;;;;;22.75;17.75;;;;;11.58;100.00;102919.81;5018092;28;46235;-74
2021/11/19 02:06:23;;;;;;;;;17.50;16.00;;;;;11.61;100.00;102920.03;5018252;28;45384;-73
2021/11/19 02:08:50;;;;;;;;;21.25;19.75;;;;;11.61;100.00;102920.03;5018384;28;45339;-72
2021/11/19 02:11:46;;;;;;;;;17.25;16.00;;;;;11.67;100.00;102912.72;5018262;28;45497;-72
2021/11/19 02:14:14;;;;;;;;;18.50;16.50;;;;;11.69;100.00;102912.81;5017858;28;45343;-73
2021/11/19 02:16:55;;;;;;;;;19.00;17.50;;;;;11.70;100.00;102906.84;5017878;28;46008;-73
2021/11/19 02:19:36;;;;;;;;;20.50;16.50;;;;;11.74;100.00;102914.06;5018260;28;45296;-72
2021/11/19 02:22:09;;;;;;;;;15.25;15.00;;;;;11.72;100.00;102905.28;5018207;28;45396;-72
2021/11/19 02:24:47;;;;;;;;;19.00;18.00;;;;;11.69;100.00;102905.03;4999674;28;46262;-73
2021/11/19 02:27:19;;;;;;;;;9.00;8.75;;;;;11.63;100.00;102889.91;5017729;28;45198;-73
2021/11/19 02:29:59;;;;;;;;;18.00;16.25;;;;;11.72;100.00;102913.94;5017593;28;45371;-73
2021/11/19 02:32:33;;;;;;;;;14.50;14.25;;;;;11.70;100.00;102907.75;5017982;28;45384;-73
2021/11/19 02:35:00;;;;;;;;;16.00;12.75;;;;;11.72;100.00;102913.06;5017094;28;46196;-72
2021/11/19 02:37:34;;;;;;;;;16.25;14.50;;;;;11.72;100.00;102910.47;5017642;28;45773;-72
2021/11/19 02:40:13;;;;;;;;;16.00;13.00;;;;;11.71;100.00;102900.88;5017622;28;45444;-73
2021/11/19 02:42:47;;;;;;;;;18.00;15.25;;;;;11.71;100.00;102903.47;5017819;28;45447;-73
2021/11/19 02:45:28;;;;;;;;;17.00;16.00;;;;;11.73;100.00;102902.78;5017238;28;45365;-72
2021/11/19 02:47:53;;;;;;;;;15.50;14.75;;;;;11.72;100.00;102903.56;4999450;28;45247;-73
2021/11/19 02:50:20;;;;;;;;;15.50;14.25;;;;;11.72;100.00;102910.47;5017747;28;45307;-72
2021/11/19 02:52:49;;;;;;;;;17.50;14.50;;;;;11.71;100.00;102909.56;5017731;28;45560;-73
2021/11/19 02:55:20;;;;;;;;;15.00;12.75;;;;;11.73;100.00;102914.88;5017113;28;46059;-75
2021/11/19 02:57:46;;;;;;;;;16.75;15.00;;;;;11.73;100.00;102910.56;5017244;28;45315;-73
2021/11/19 03:00:18;;;;;;;;;17.50;14.75;;;;;11.76;100.00;102905.59;5017386;28;45457;-73
2021/11/19 03:02:43;;;;;;;;;18.00;14.25;;;;;11.79;100.00;102912.72;5017614;28;45440;-74
2021/11/19 03:05:13;;;;;;;;;19.00;15.75;;;;;11.81;100.00;102895.56;4999308;28;46213;-76
2021/11/19 03:07:40;;;;;;;;;20.75;17.75;;;;;11.85;100.00;102904.47;5017185;28;45423;-74
2021/11/19 03:10:32;;;;;;;;;16.00;13.75;;;;;11.86;100.00;102896.81;5017168;28;45407;-76
2021/11/19 03:12:58;;;;;;;;;18.00;17.25;;;;;11.83;100.00;102893.06;5017327;28;45352;-74
2021/11/19 03:15:28;;;;;;;;;17.50;14.00;;;;;11.87;100.00;102892.50;5016869;28;45394;-75
2021/11/19 03:17:55;;;;;;;;;18.00;16.50;;;;;11.89;100.00;102896.13;5016960;28;45779;-73
2021/11/19 03:20:23;;;;;;;;;18.25;15.50;;;;;11.87;100.00;102893.44;5017408;28;45289;-79
2021/11/19 03:22:50;;;;;;;;;17.00;14.25;;;;;11.86;100.00;102902.00;4999445;28;45424;-77
2021/11/19 03:25:18;;;;;;;;;15.00;14.00;;;;;11.84;100.00;102901.00;5016745;28;46075;-75
2021/11/19 03:27:45;;;;;;;;;13.75;11.50;;;;;11.81;100.00;102881.69;5017885;28;45741;-74
2021/11/19 03:30:14;;;;;;;;;14.00;12.75;;;;;11.84;100.00;102895.78;5020296;28;45130;-72
2021/11/19 03:32:41;;;;;;;;;16.25;15.00;;;;;11.83;100.00;102890.47;5019726;28;45293;-73
2021/11/19 03:35:08;;;;;;;;;15.00;13.00;;;;;11.86;100.00;102893.31;5016598;28;46099;-76
2021/11/19 03:37:34;;;;;;;;;17.25;14.50;;;;;11.87;100.00;102892.50;5016664;28;45930;-78
2021/11/19 03:40:00;;;;;;;;;15.50;14.75;;;;;11.83;100.00;102888.78;5016762;28;45239;-73
2021/11/19 03:42:26;;;;;;;;;15.25;11.25;;;;;11.86;100.00;102890.69;5015639;28;45438;-75
2021/11/19 03:44:59;;;;;;;;;18.00;15.75;;;;;11.87;100.00;102896.03;5016781;28;46138;-73
2021/11/19 03:47:52;;;;;;;;;17.00;13.50;;;;;11.89;100.00;102889.22;5016607;28;45695;-75
2021/11/19 03:50:33;;;;;;;;;16.75;14.50;;;;;11.89;100.00;102883.16;4997064;28;45250;-76
2021/11/19 03:52:59;;;;;;;;;13.75;11.00;;;;;11.92;100.00;102883.38;5016980;28;45311;-72
2021/11/19 03:55:36;;;;;;;;;12.75;10.00;;;;;11.93;100.00;102893.88;5016258;28;45327;-77
2021/11/19 03:58:04;;;;;;;;;12.25;11.00;;;;;11.96;100.00;102890.59;5016425;28;45420;-74
2021/11/19 04:00:41;;;;;;;;;16.00;13.75;;;;;11.95;100.00;102883.59;5016382;28;45260;-75
2021/11/19 04:03:08;;;;;;;;;17.25;13.75;;;;;11.98;100.00;102885.56;5016647;28;45414;-74
2021/11/19 04:05:35;;;;;;;;;13.00;10.75;;;;;11.93;100.00;102880.00;5016207;28;46660;-73
2021/11/19 04:08:01;;;;;;;;;17.00;14.00;;;;;11.97;100.00;102884.59;4998466;28;45956;-76
2021/11/19 04:10:27;;;;;;;;;14.00;13.75;;;;;11.96;100.00;102885.38;5016380;28;45311;-74
2021/11/19 04:12:53;;;;;;;;;15.25;15.00;;;;;11.95;100.00;102883.59;5017619;28;45481;-74
2021/11/19 04:15:24;;;;;;;;;17.25;14.00;;;;;11.88;100.00;102871.84;5001684;28;47282;-76
2021/11/19 04:17:50;;;;;;;;;17.00;12.00;;;;;11.96;100.00;102887.97;5019855;28;45823;-74
2021/11/19 04:20:19;;;;;;;;;15.00;9.25;;;;;11.99;100.00;102877.88;5019887;28;45359;-72
2021/11/19 04:22:44;;;;;;;;;19.00;14.75;;;;;12.00;100.00;102890.06;5020089;28;45224;-73
2021/11/19 04:25:14;;;;;;;;;16.00;15.50;;;;;11.99;100.00;102876.94;5001609;28;46436;-75
2021/11/19 04:27:40;;;;;;;;;14.75;12.00;;;;;11.99;100.00;102883.06;5019577;28;45395;-73
2021/11/19 04:30:09;;;;;;;;;17.00;13.75;;;;;11.99;100.00;102884.72;5019574;28;45342;-73
2021/11/19 04:32:34;;;;;;;;;13.25;13.25;;;;;12.00;100.00;102887.47;5019891;28;45164;-77
2021/11/19 04:35:00;;;;;;;;;14.00;11.25;;;;;11.98;100.00;102889.03;5019323;28;45841;-73
2021/11/19 04:37:26;;;;;;;;;18.75;13.50;;;;;11.99;100.00;102889.94;5019339;28;45354;-78
2021/11/19 04:39:53;;;;;;;;;16.25;15.50;;;;;11.98;100.00;102889.03;5019756;28;45364;-75
2021/11/19 04:42:19;;;;;;;;;14.50;12.50;;;;;11.97;100.00;102889.78;5019615;28;45357;-77
2021/11/19 04:44:46;;;;;;;;;16.50;15.25;;;;;11.99;100.00;102887.34;5019119;28;45319;-73
2021/11/19 04:47:12;;;;;;;;;13.75;12.75;;;;;12.03;100.00;102886.78;5019356;28;45866;-79
2021/11/19 04:49:39;;;;;;;;;17.50;13.50;;;;;12.03;100.00;102887.69;5019222;28;45470;-78
2021/11/19 04:52:08;;;;;;;;;15.25;12.50;;;;;12.06;100.00;102893.09;5019519;28;45471;-76
2021/11/19 04:54:34;;;;;;;;;17.50;15.25;;;;;12.05;100.00;102883.50;5000894;28;46479;-74
2021/11/19 04:57:01;;;;;;;;;13.25;13.25;;;;;12.11;100.00;102884.75;5019115;28;45458;-74
2021/11/19 04:59:27;;;;;;;;;13.75;12.50;;;;;12.11;100.00;102884.75;5019259;28;45315;-76
2021/11/19 05:01:57;;;;;;;;;15.25;14.50;;;;;12.13;100.00;102893.56;5019658;28;45451;-73
2021/11/19 05:04:23;;;;;;;;;13.50;10.50;;;;;12.10;100.00;102877.75;5019182;28;46142;-74
2021/11/19 05:06:49;;;;;;;;;16.75;12.50;;;;;12.14;100.00;102885.84;5018857;28;45424;-73
2021/11/19 05:09:16;;;;;;;;;17.00;15.00;;;;;12.12;100.00;102877.03;5019191;28;45325;-74
2021/11/19 05:12:11;;;;;;;;;14.50;14.00;;;;;12.16;100.00;102878.16;5019234;28;45462;-76
2021/11/19 05:14:37;;;;;;;;;17.00;15.00;;;;;12.20;100.00;102875.00;5000869;28;47007;-76
2021/11/19 05:17:05;;;;;;;;;12.75;11.75;;;;;12.19;100.00;102874.13;5018714;28;45422;-79
2021/11/19 05:19:31;;;;;;;;;12.50;9.75;;;;;12.10;100.00;102856.97;5019253;28;45289;-79
2021/11/19 05:21:57;;;;;;;;;19.50;17.25;;;;;12.16;100.00;102879.09;5019065;28;45431;-75
2021/11/19 05:24:23;;;;;;;;;16.75;13.00;;;;;12.13;100.00;102875.38;5017643;28;45918;-78
2021/11/19 05:26:50;;;;;;;;;13.50;11.00;;;;;12.15;100.00;102877.28;5018699;28;45809;-76
2021/11/19 05:29:18;;;;;;;;;15.00;14.00;;;;;12.11;100.00;102869.16;5000869;28;45326;-77
2021/11/19 05:31:45;;;;;;;;;14.50;14.50;;;;;12.15;100.00;102874.69;5000928;28;45305;-78
2021/11/19 05:34:12;;;;;;;;;16.50;14.50;;;;;12.16;100.00;102880.75;5018200;28;45899;-75
2021/11/19 05:36:38;;;;;;;;;17.25;14.25;;;;;12.18;100.00;102879.19;5018530;28;45867;-76
2021/11/19 05:39:04;;;;;;;;;15.75;13.25;;;;;12.16;100.00;102865.19;5019311;28;45443;-77
2021/11/19 05:41:30;;;;;;;;;15.25;14.75;;;;;12.19;100.00;102874.13;5019504;28;45411;-75
2021/11/19 05:43:57;;;;;;;;;18.50;17.75;;;;;12.18;100.00;102881.78;5027710;28;45347;-74
2021/11/19 05:46:25;;;;;;;;;19.25;17.00;;;;;12.19;100.00;102881.00;5033230;28;45133;-75
2021/11/19 05:48:53;;;;;;;;;9.00;9.00;;;;;12.18;100.00;102877.50;5023773;28;45306;-77
2021/11/19 05:51:20;;;;;;;;;10.00;10.00;;;;;12.18;100.00;102880.09;5018525;28;45347;-77
2021/11/19 05:53:47;;;;;;;;;17.50;14.00;;;;;12.19;100.00;102886.19;5017081;28;46319;-74
2021/11/19 05:56:13;;;;;;;;;16.50;14.00;;;;;12.19;100.00;102887.09;5017709;28;45453;-78
2021/11/19 05:58:39;;;;;;;;;16.25;15.00;;;;;12.12;100.00;102874.44;5017696;28;45235;-75
2021/11/19 06:01:10;;;;;;;;;12.00;10.00;;;;;12.19;100.00;102876.72;5017891;28;45539;-76
2021/11/19 06:03:37;;;;;;;;;17.00;14.25;;;;;12.21;100.00;102882.91;5017199;28;45398;-77
2021/11/19 06:06:06;;;;;;;;;17.00;16.25;;;;;12.24;100.00;102887.44;5017186;28;45419;-73
2021/11/19 06:08:32;;;;;;;;;14.50;14.25;;;;;12.24;100.00;102879.63;5017606;28;45256;-75
2021/11/19 06:11:02;;;;;;;;;18.50;18.00;;;;;12.23;100.00;102891.69;5017787;28;45358;-72
2021/11/19 06:13:36;;;;;;;;;18.00;16.00;;;;;12.26;100.00;102882.34;5017150;28;46421;-74
2021/11/19 06:16:06;;;;;;;;;18.50;16.00;;;;;12.27;100.00;102895.41;5016881;28;45347;-72
2021/11/19 06:18:37;;;;;;;;;19.00;17.00;;;;;12.25;100.00;102891.84;5017491;28;45238;-72
2021/11/19 06:21:06;;;;;;;;;17.25;15.50;;;;;12.25;100.00;102894.44;5017347;28;45447;-72
2021/11/19 06:23:43;;;;;;;;;21.25;20.00;;;;;12.24;100.00;102884.84;5017049;28;45351;-73
2021/11/19 06:26:12;;;;;;;;;18.00;16.50;;;;;12.30;100.00;102895.66;5017010;28;45914;-73
2021/11/19 06:28:42;;;;;;;;;19.25;17.50;;;;;12.27;100.00;102891.94;5017068;28;45449;-73
2021/11/19 06:31:13;;;;;;;;;18.25;16.00;;;;;12.29;100.00;102898.16;5017336;28;45607;-72
2021/11/19 06:33:39;;;;;;;;;20.75;17.75;;;;;12.26;100.00;102892.72;5016007;28;45995;-72
2021/11/19 06:36:06;;;;;;;;;21.25;17.50;;;;;12.28;100.00;102891.13;5015418;28;45477;-73
2021/11/19 06:38:32;;;;;;;;;15.75;15.75;;;;;12.28;100.00;102902.41;5016599;28;45356;-73
2021/11/19 06:40:58;;;;;;;;;24.75;20.25;;;;;12.28;100.00;102901.53;5016603;28;45550;-73
2021/11/19 06:43:24;;;;;;;;;26.00;23.25;;;;;12.27;100.00;102899.72;5013448;28;46176;-72
2021/11/19 06:45:50;;;;;;;;;18.75;16.75;;;;;12.27;100.00;102898.00;5015923;28;45451;-73
2021/11/19 06:48:16;;;;;;;;;21.50;17.50;;;;;12.32;100.00;102896.66;5016027;28;45495;-73
2021/11/19 06:50:44;;;;;;;;;21.25;17.00;;;;;12.31;100.00;102900.06;5015970;28;45584;-76
2021/11/19 06:53:12;;;;;;;;;19.75;17.00;;;;;12.33;100.00;102905.34;5015611;28;46291;-73
2021/11/19 06:55:39;;;;;;;;;17.25;15.75;;;;;12.32;100.00;102893.16;5015912;28;45845;-74
2021/11/19 06:58:07;;;;;;;;;19.25;19.00;;;;;12.33;100.00;102893.28;5013208;28;45353;-73
2021/11/19 07:00:37;;;;;;;;;19.75;19.75;;;;;12.32;100.00;102894.06;5016193;28;45403;-71
2021/11/19 07:03:03;;;;;;;;;22.50;19.50;;;;;12.32;100.00;102901.84;5015405;28;45513;-72
2021/11/19 07:05:29;;;;;;;;;17.25;16.75;;;;;12.36;100.00;102900.38;5015914;28;45473;-73
2021/11/19 07:07:55;;;;;;;;;17.00;17.00;;;;;12.35;100.00;102916.75;5016213;28;45390;-72
2021/11/19 07:10:25;;;;;;;;;16.50;16.00;;;;;12.38;100.00;102917.88;5016635;28;45614;-73
2021/11/19 07:12:51;;;;;;;;;20.50;17.50;;;;;12.40;100.00;102920.59;5016056;28;45985;-74
2021/11/19 07:15:18;;;;;;;;;18.25;18.25;;;;;12.38;100.00;102922.19;5016065;28;45364;-73
2021/11/19 07:17:45;;;;;;;;;21.75;21.25;;;;;12.40;100.00;102920.59;5016248;28;45500;-72
2021/11/19 07:20:14;;;;;;;;;21.75;21.50;;;;;12.43;100.00;102927.69;5015779;28;45578;-73
2021/11/19 07:22:40;;;;;;;;;20.00;18.00;;;;;12.47;100.00;102940.13;5022491;28;46667;-74
2021/11/19 07:25:09;;;;;;;;;23.25;19.00;;;;;12.49;100.00;102943.72;5033029;28;45464;-75
2021/11/19 07:27:35;;;;;;;;;22.50;17.00;;;;;12.48;100.00;102936.72;5025564;28;45388;-77
2021/11/19 07:30:04;;;;;;;;;21.00;18.50;;;;;12.51;100.00;102942.13;5036319;28;45331;-78
2021/11/19 07:32:30;;;;;;;;;18.75;18.25;;;;;12.47;100.00;102924.53;5019383;28;46429;-76
2021/11/19 07:34:55;;;;;;;;;17.75;16.75;;;;;12.51;100.00;102937.84;5014941;28;45261;-73
2021/11/19 07:37:23;;;;;;;;;22.75;20.50;;;;;12.48;100.00;102937.63;5016803;28;45397;-78
2021/11/19 07:39:50;;;;;;;;;20.75;18.50;;;;;12.49;100.00;102944.63;5017034;28;45462;-78
2021/11/19 07:42:16;;;;;;;;;17.25;15.50;;;;;12.47;100.00;102932.34;5014204;28;46080;-77
2021/11/19 07:44:42;;;;;;;;;21.25;18.75;;;;;12.54;100.00;102960.53;5013617;28;45596;-75
2021/11/19 07:47:08;;;;;;;;;19.25;16.50;;;;;12.53;100.00;102954.44;5013975;28;45463;-74
2021/11/19 07:49:34;;;;;;;;;21.25;17.50;;;;;12.53;100.00;102948.34;5012565;28;45841;-76
2021/11/19 07:51:59;;;;;;;;;18.00;15.25;;;;;12.48;100.00;102949.69;5014281;28;45413;-75
2021/11/19 07:54:25;;;;;;;;;15.50;11.25;;;;;12.50;100.00;102954.22;5011485;28;46429;-76
2021/11/19 07:56:51;;;;;;;;;19.50;16.25;;;;;12.49;100.00;102957.63;5009595;28;45381;-77
2021/11/19 07:59:23;;;;;;;;;18.00;15.75;;;;;12.54;100.00;102966.63;5022424;28;45542;-80
2021/11/19 08:01:50;;;;;;;;;20.75;19.75;;;;;12.55;100.00;102964.94;5037205;28;45516;-80
2021/11/19 08:04:16;;;;;;;;;19.75;18.25;;;;;12.57;100.00;102962.44;5019769;28;45236;-78
2021/11/19 08:06:43;;;;;;;;;17.25;14.25;;;;;12.57;100.00;102968.56;5015284;28;45714;-77
2021/11/19 08:09:10;;;;;;;;;17.75;17.25;;;;;12.60;100.00;102975.69;5014716;28;45772;-78
2021/11/19 08:11:36;;;;;;;;;15.00;13.50;;;;;12.61;100.00;102977.47;5013220;28;45693;-79
2021/11/19 08:14:03;;;;;;;;;23.25;18.75;;;;;12.61;100.00;102967.09;5012799;28;45541;-74
2021/11/19 08:16:48;;;;;;;;;21.75;20.00;;;;;12.64;100.00;102978.59;5014928;28;45452;-76
2021/11/19 08:19:25;;;;;;;;;23.00;20.75;;;;;12.66;100.00;102978.69;5012449;28;45529;-78
2021/11/19 08:21:53;;;;;;;;;31.50;27.00;;;;;12.60;100.00;102973.06;5016082;28;45396;-78
2021/11/19 08:24:19;;;;;;;;;29.25;27.00;;;;;12.67;100.00;102977.91;5018105;28;45431;-77
2021/11/19 08:26:51;;;;;;;;;38.00;30.75;;;;;12.66;100.00;102970.91;5035000;28;45382;-75
2021/11/19 08:29:22;;;;;;;;;34.75;28.75;;;;;12.67;100.00;102970.09;5018166;28;45489;-77
2021/11/19 08:31:49;;;;;;;;;35.75;31.25;;;;;12.66;100.00;102969.22;5014640;28;45443;-72
2021/11/19 08:34:15;;;;;;;;;35.00;31.00;;;;;12.66;100.00;102970.91;5024912;28;46431;-74
2021/11/19 08:36:41;;;;;;;;;32.25;30.25;;;;;12.65;100.00;102966.50;5016960;28;45590;-74
2021/11/19 08:39:09;;;;;;;;;35.75;33.00;;;;;12.69;100.00;102974.59;5017578;28;46898;-72
2021/11/19 08:41:35;;;;;;;;;34.00;28.75;;;;;12.67;100.00;102973.63;5017547;28;45649;-74
2021/11/19 08:44:01;;;;;;;;;32.50;29.00;;;;;12.66;100.00;102957.91;5025761;28;45806;-73
2021/11/19 08:46:33;;;;;;;;;32.25;30.50;;;;;12.72;100.00;102976.56;5018697;28;45419;-75
2021/11/19 08:49:05;;;;;;;;;37.00;33.75;;;;;12.75;100.00;102973.25;5016138;28;45549;-79
2021/11/19 08:51:31;;;;;;;;;32.75;28.75;;;;;12.77;100.00;102966.47;5023090;28;46650;-74
2021/11/19 08:54:01;;;;;;;;;30.00;28.50;;;;;12.75;100.00;102963.75;5014401;28;45273;-74
2021/11/19 08:56:29;;;;;;;;;31.50;28.00;;;;;12.77;100.00;102969.06;5014481;28;45522;-73
2021/11/19 08:58:56;;;;;;;;;32.75;28.00;;;;;12.74;100.00;102961.94;5015926;28;45410;-73
2021/11/19 09:01:23;;;;;;;;;33.50;27.00;;;;;12.70;100.00;102962.53;5017921;28;46014;-80
2021/11/19 09:03:50;;;;;;;;;30.75;25.50;;;;;12.69;100.00;102959.00;5017671;28;45372;-76
2021/11/19 09:06:20;;;;;;;;;30.25;28.50;;;;;12.76;100.00;102980.25;5018440;28;45407;-77
2021/11/19 09:08:48;;;;;;;;;27.25;25.25;;;;;12.78;100.00;102970.88;5018228;28;45752;-74
2021/11/19 09:11:16;;;;;;;;;26.75;23.25;;;;;12.74;100.00;102967.13;5017430;28;45559;-76
2021/11/19 09:13:43;;;;;;;;;24.25;23.25;;;;;12.80;100.00;102980.59;5017719;28;45424;-76
2021/11/19 09:16:11;;;;;;;;;29.25;27.75;;;;;12.81;100.00;102971.06;5017635;28;45280;-76
2021/11/19 09:18:42;;;;;;;;;30.00;25.50;;;;;12.86;100.00;102977.53;5016429;28;45449;-76
2021/11/19 09:21:18;;;;;;;;;24.00;23.25;;;;;12.89;100.00;102982.94;5017133;28;46065;-77
2021/11/19 09:23:55;;;;;;;;;28.25;26.00;;;;;12.89;100.00;102982.03;5017868;28;45234;-74
2021/11/19 09:26:31;;;;;;;;;28.25;24.75;;;;;12.90;100.00;102979.56;5018210;28;45329;-76
2021/11/19 09:28:57;;;;;;;;;29.00;25.75;;;;;12.90;100.00;102982.16;5018388;28;45324;-79
2021/11/19 09:31:23;;;;;;;;;28.00;24.25;;;;;12.89;100.00;102993.34;4999348;28;47339;-76
2021/11/19 09:33:50;;;;;;;;;34.00;31.00;;;;;12.88;100.00;102982.81;5018857;28;45978;-80
2021/11/19 09:36:17;;;;;;;;;28.25;27.25;;;;;12.86;100.00;102980.13;5026187;28;45415;-81
2021/11/19 09:38:43;;;;;;;;;32.50;30.25;;;;;12.88;100.00;102975.94;5021402;28;45426;-78
2021/11/19 09:41:41;;;;;;;;;37.50;33.25;;;;;12.95;100.00;102993.75;5021031;28;46174;-78
2021/11/19 09:44:41;;;;;;;;;34.75;32.00;;;;;12.98;100.00;102987.84;4998086;28;45829;-78
2021/11/19 09:47:28;;;;;;;;;34.00;29.25;;;;;12.96;100.00;102981.66;5012239;28;45364;-78
2021/11/19 09:50:08;;;;;;;;;30.50;29.75;;;;;12.92;100.00;102977.94;5012192;28;45295;-79
2021/11/19 09:52:56;;;;;;;;;30.75;27.25;;;;;12.99;100.00;102985.38;5017554;28;45545;-78
2021/11/19 09:56:02;;;;;;;;;38.25;31.00;;;;;13.03;100.00;102985.59;5015573;28;45888;-78
2021/11/19 09:58:43;;;;;;;;;37.25;32.75;;;;;13.06;100.00;102984.13;5015956;28;45443;-78
2021/11/19 10:01:36;;;;;;;;;36.75;33.00;;;;;13.08;100.00;102992.03;5016165;28;45508;-79
2021/11/19 10:04:11;;;;;;;;;42.00;33.50;;;;;13.07;100.00;102985.91;5008585;28;46874;-79
2021/11/19 10:06:42;;;;;;;;;36.00;32.75;;;;;13.01;100.00;102970.78;5017373;28;45372;-79
2021/11/19 10:09:15;;;;;;;;;35.50;31.00;;;;;13.08;100.00;102977.31;5022545;28;45609;-79
2021/11/19 10:11:56;;;;;;;;;35.75;31.75;;;;;13.09;100.00;102984.31;5037156;28;45612;-80
2021/11/19 10:14:39;;;;;;;;;35.25;32.00;;;;;13.11;100.00;102980.13;5026871;28;46080;-78
2021/11/19 10:17:12;;;;;;;;;31.75;28.50;;;;;13.12;100.00;102984.53;5035549;28;45205;-78
2021/11/19 10:19:45;;;;;;;;;38.25;30.50;;;;;13.16;100.00;102978.75;5024443;28;45455;-80
2021/11/19 10:22:21;;;;;;;;;35.25;30.25;;;;;13.11;100.00;102959.31;5017919;28;45416;-78
2021/11/19 10:24:46;;;;;;;;;42.25;32.00;;;;;13.24;100.00;102976.66;5015216;28;45602;-78
2021/11/19 10:27:17;;;;;;;;;39.50;33.75;;;;;13.28;100.00;102978.69;5015829;28;45396;-79
2021/11/19 10:29:47;;;;;;;;;32.00;31.00;;;;;13.30;100.00;102973.59;5014362;28;45431;-80
2021/11/19 10:32:17;;;;;;;;;36.25;33.25;;;;;13.32;100.00;102966.78;5016118;28;45499;-76
2021/11/19 10:35:14;;;;;;;;;38.00;33.00;;;;;13.32;100.00;102962.50;5014347;28;47130;-79
2021/11/19 10:38:23;;;;;;;;;39.75;31.25;;;;;13.34;100.00;102960.00;4981995;28;45459;-78
2021/11/19 10:41:08;;;;;;;;;40.00;34.25;;;;;13.35;100.00;102971.28;5014608;28;45451;-75
2021/11/19 10:43:52;;;;;;;;;42.25;36.00;;;;;13.34;100.00;102967.81;4997253;28;45306;-76
2021/11/19 10:46:24;;;;;;;;;43.25;36.75;;;;;13.35;100.00;102960.88;5016398;28;46521;-76
2021/11/19 10:48:59;;;;;;;;;48.50;37.75;;;;;13.37;100.00;102961.91;5016418;28;46047;-76
2021/11/19 10:52:07;;;;;;;;;43.25;35.25;;;;;13.38;100.00;102963.72;5016467;28;45492;-77
2021/11/19 10:55:17;;;;;;;;;39.75;31.25;;;;;13.29;100.00;102948.34;4929062;28;45559;-75
2021/11/19 10:58:11;;;;;;;;;35.75;32.00;;;;;13.38;100.00;102956.81;4966562;28;46330;-77
2021/11/19 11:00:37;;;;;;;;;39.75;32.25;;;;;13.40;100.00;102959.53;4996762;28;45320;-77
2021/11/19 11:03:16;;;;;;;;;37.00;27.25;;;;;13.42;100.00;102958.84;5010000;28;45195;-77
2021/11/19 11:05:44;;;;;;;;;33.25;29.75;;;;;13.41;100.00;102949.22;5016301;28;45458;-77
2021/11/19 11:08:25;;;;;;;;;33.75;30.75;;;;;13.45;100.00;102945.13;5016377;28;45544;-77
2021/11/19 11:11:00;;;;;;;;;31.75;28.50;;;;;13.50;100.00;102950.69;5015674;28;45396;-77
2021/11/19 11:13:42;;;;;;;;;29.50;26.00;;;;;13.46;100.00;102940.06;4996550;28;45546;-76
2021/11/19 11:16:24;;;;;;;;;39.25;32.75;;;;;13.51;100.00;102945.56;4997276;28;45976;-78
2021/11/19 11:19:11;;;;;;;;;32.00;28.75;;;;;13.52;100.00;102952.56;5014140;28;45618;-78